sensor_id;sensor_type;location;lat;lon;timestamp;P1;durP1;ratioP1;P2;durP2;ratioP2
3613;SDS011;1821;50.936;6.854;2022-10-16T00:00:40;4.47;;;3.28;;
3613;SDS011;1821;50.936;6.854;2022-10-16T00:01:24;4.10;;;3.13;;
3613;SDS011;1821;50.936;6.854;2022-10-16T00:02:07;4.70;;;3.17;;
3613;SDS011;1821;50.936;6.854;2022-10-16T00:02:49;6.70;;;3.47;;
3613;SDS011;1821;50.936;6.854;2022-10-16T00:03:31;4.45;;;3.25;;
3613;SDS011;1821;50.936;6.854;2022-10-16T00:04:12;4.80;;;3.25;;
3613;SDS011;1821;50.936;6.854;2022-10-16T00:04:54;6.90;;;3.45;;
3613;SDS011;1821;50.936;6.854;2022-10-16T00:05:40;7.55;;;3.80;;
3613;SDS011;1821;50.936;6.854;2022-10-16T00:06:23;5.60;;;3.40;;
3613;SDS011;1821;50.936;6.854;2022-10-16T00:07:06;4.15;;;3.03;;
3613;SDS011;1821;50.936;6.854;2022-10-16T00:07:47;7.30;;;3.30;;
3613;SDS011;1821;50.936;6.854;2022-10-16T00:08:29;5.72;;;3.50;;
3613;SDS011;1821;50.936;6.854;2022-10-16T00:09:11;4.93;;;3.17;;
3613;SDS011;1821;50.936;6.854;2022-10-16T00:09:53;5.63;;;2.90;;
3613;SDS011;1821;50.936;6.854;2022-10-16T00:10:34;4.72;;;3.20;;
3613;SDS011;1821;50.936;6.854;2022-10-16T00:11:21;4.63;;;3.35;;
3613;SDS011;1821;50.936;6.854;2022-10-16T00:12:05;4.45;;;3.20;;
3613;SDS011;1821;50.936;6.854;2022-10-16T00:12:48;5.00;;;3.20;;
3613;SDS011;1821;50.936;6.854;2022-10-16T00:13:30;6.82;;;2.83;;
3613;SDS011;1821;50.936;6.854;2022-10-16T00:14:13;6.20;;;2.88;;
3613;SDS011;1821;50.936;6.854;2022-10-16T00:14:55;4.93;;;2.83;;
3613;SDS011;1821;50.936;6.854;2022-10-16T00:15:37;4.50;;;2.80;;
3613;SDS011;1821;50.936;6.854;2022-10-16T00:16:20;3.55;;;2.33;;
3613;SDS011;1821;50.936;6.854;2022-10-16T00:17:01;4.03;;;2.33;;
3613;SDS011;1821;50.936;6.854;2022-10-16T00:17:43;4.43;;;2.60;;
3613;SDS011;1821;50.936;6.854;2022-10-16T00:18:25;3.75;;;2.70;;
3613;SDS011;1821;50.936;6.854;2022-10-16T00:19:09;5.25;;;2.53;;
3613;SDS011;1821;50.936;6.854;2022-10-16T00:19:52;6.18;;;2.58;;
3613;SDS011;1821;50.936;6.854;2022-10-16T00:20:34;4.97;;;2.47;;
3613;SDS011;1821;50.936;6.854;2022-10-16T00:21:17;4.70;;;2.50;;
3613;SDS011;1821;50.936;6.854;2022-10-16T00:22:01;3.22;;;2.30;;
3613;SDS011;1821;50.936;6.854;2022-10-16T00:22:42;4.15;;;2.80;;
3613;SDS011;1821;50.936;6.854;2022-10-16T00:23:24;4.82;;;2.80;;
3613;SDS011;1821;50.936;6.854;2022-10-16T00:24:07;3.78;;;2.50;;
3613;SDS011;1821;50.936;6.854;2022-10-16T00:24:50;3.50;;;2.42;;
3613;SDS011;1821;50.936;6.854;2022-10-16T00:25:32;3.30;;;2.20;;
3613;SDS011;1821;50.936;6.854;2022-10-16T00:26:14;4.20;;;2.30;;
3613;SDS011;1821;50.936;6.854;2022-10-16T00:26:57;3.20;;;2.00;;
3613;SDS011;1821;50.936;6.854;2022-10-16T00:27:39;4.13;;;1.95;;
3613;SDS011;1821;50.936;6.854;2022-10-16T00:28:21;5.88;;;2.50;;
3613;SDS011;1821;50.936;6.854;2022-10-16T00:29:03;4.20;;;2.50;;
3613;SDS011;1821;50.936;6.854;2022-10-16T00:29:48;3.80;;;2.70;;
3613;SDS011;1821;50.936;6.854;2022-10-16T00:30:33;4.53;;;2.50;;
3613;SDS011;1821;50.936;6.854;2022-10-16T00:31:18;5.00;;;2.40;;
3613;SDS011;1821;50.936;6.854;2022-10-16T00:32:01;4.35;;;2.20;;
3613;SDS011;1821;50.936;6.854;2022-10-16T00:32:43;3.75;;;2.15;;
3613;SDS011;1821;50.936;6.854;2022-10-16T00:33:25;4.07;;;2.20;;
3613;SDS011;1821;50.936;6.854;2022-10-16T00:34:06;4.07;;;2.30;;
3613;SDS011;1821;50.936;6.854;2022-10-16T00:34:48;3.55;;;2.50;;
3613;SDS011;1821;50.936;6.854;2022-10-16T00:35:30;4.35;;;2.55;;
3613;SDS011;1821;50.936;6.854;2022-10-16T00:36:14;3.83;;;2.20;;
3613;SDS011;1821;50.936;6.854;2022-10-16T00:36:57;3.42;;;2.30;;
3613;SDS011;1821;50.936;6.854;2022-10-16T00:37:39;2.88;;;2.00;;
3613;SDS011;1821;50.936;6.854;2022-10-16T00:38:21;3.00;;;1.95;;
3613;SDS011;1821;50.936;6.854;2022-10-16T00:39:02;4.00;;;2.10;;
3613;SDS011;1821;50.936;6.854;2022-10-16T00:39:44;4.10;;;2.20;;
3613;SDS011;1821;50.936;6.854;2022-10-16T00:40:26;3.30;;;2.30;;
3613;SDS011;1821;50.936;6.854;2022-10-16T00:41:10;3.30;;;2.10;;
3613;SDS011;1821;50.936;6.854;2022-10-16T00:41:54;3.28;;;2.28;;
3613;SDS011;1821;50.936;6.854;2022-10-16T00:42:36;3.38;;;2.20;;
3613;SDS011;1821;50.936;6.854;2022-10-16T00:45:39;5.32;;;2.10;;
3613;SDS011;1821;50.936;6.854;2022-10-16T00:46:29;4.25;;;2.15;;
3613;SDS011;1821;50.936;6.854;2022-10-16T00:47:32;4.40;;;2.10;;
3613;SDS011;1821;50.936;6.854;2022-10-16T00:48:17;4.90;;;1.90;;
3613;SDS011;1821;50.936;6.854;2022-10-16T00:49:12;2.70;;;1.85;;
3613;SDS011;1821;50.936;6.854;2022-10-16T00:50:39;3.03;;;2.05;;
3613;SDS011;1821;50.936;6.854;2022-10-16T00:51:06;4.20;;;2.20;;
3613;SDS011;1821;50.936;6.854;2022-10-16T00:51:52;3.22;;;2.10;;
3613;SDS011;1821;50.936;6.854;2022-10-16T00:52:35;3.63;;;2.00;;
3613;SDS011;1821;50.936;6.854;2022-10-16T00:53:19;3.30;;;2.10;;
3613;SDS011;1821;50.936;6.854;2022-10-16T00:54:02;2.90;;;1.85;;
3613;SDS011;1821;50.936;6.854;2022-10-16T00:54:48;3.22;;;1.80;;
3613;SDS011;1821;50.936;6.854;2022-10-16T00:55:33;2.90;;;1.90;;
3613;SDS011;1821;50.936;6.854;2022-10-16T00:56:21;3.10;;;1.80;;
3613;SDS011;1821;50.936;6.854;2022-10-16T00:57:04;3.60;;;2.40;;
3613;SDS011;1821;50.936;6.854;2022-10-16T00:57:47;4.43;;;2.10;;
3613;SDS011;1821;50.936;6.854;2022-10-16T00:58:30;5.45;;;2.20;;
3613;SDS011;1821;50.936;6.854;2022-10-16T00:59:18;3.90;;;1.90;;
3613;SDS011;1821;50.936;6.854;2022-10-16T01:00:04;3.47;;;2.20;;
3613;SDS011;1821;50.936;6.854;2022-10-16T01:00:47;3.28;;;1.90;;
3613;SDS011;1821;50.936;6.854;2022-10-16T01:01:29;2.80;;;2.00;;
3613;SDS011;1821;50.936;6.854;2022-10-16T01:02:12;3.10;;;2.20;;
3613;SDS011;1821;50.936;6.854;2022-10-16T01:02:56;4.00;;;2.10;;
3613;SDS011;1821;50.936;6.854;2022-10-16T01:03:39;3.30;;;2.17;;
3613;SDS011;1821;50.936;6.854;2022-10-16T01:04:21;3.38;;;2.30;;
3613;SDS011;1821;50.936;6.854;2022-10-16T01:05:04;3.20;;;2.20;;
3613;SDS011;1821;50.936;6.854;2022-10-16T01:05:49;4.15;;;2.33;;
3613;SDS011;1821;50.936;6.854;2022-10-16T01:06:38;3.53;;;1.75;;
3613;SDS011;1821;50.936;6.854;2022-10-16T01:09:02;3.60;;;2.60;;
3613;SDS011;1821;50.936;6.854;2022-10-16T01:10:14;5.18;;;2.40;;
3613;SDS011;1821;50.936;6.854;2022-10-16T01:11:11;4.78;;;2.53;;
3613;SDS011;1821;50.936;6.854;2022-10-16T01:13:41;3.80;;;2.30;;
3613;SDS011;1821;50.936;6.854;2022-10-16T01:14:30;4.10;;;2.45;;
3613;SDS011;1821;50.936;6.854;2022-10-16T01:15:34;4.65;;;2.20;;
3613;SDS011;1821;50.936;6.854;2022-10-16T01:16:29;3.10;;;2.20;;
3613;SDS011;1821;50.936;6.854;2022-10-16T01:19:44;4.88;;;2.40;;
3613;SDS011;1821;50.936;6.854;2022-10-16T01:20:42;4.90;;;2.58;;
3613;SDS011;1821;50.936;6.854;2022-10-16T01:21:43;4.18;;;2.65;;
3613;SDS011;1821;50.936;6.854;2022-10-16T01:22:31;3.10;;;2.50;;
3613;SDS011;1821;50.936;6.854;2022-10-16T01:25:01;6.65;;;2.58;;
3613;SDS011;1821;50.936;6.854;2022-10-16T01:27:17;3.60;;;2.10;;
3613;SDS011;1821;50.936;6.854;2022-10-16T01:28:06;3.10;;;2.47;;
3613;SDS011;1821;50.936;6.854;2022-10-16T01:30:35;2.90;;;2.30;;
3613;SDS011;1821;50.936;6.854;2022-10-16T01:31:19;3.00;;;2.50;;
3613;SDS011;1821;50.936;6.854;2022-10-16T01:32:14;3.15;;;2.50;;
3613;SDS011;1821;50.936;6.854;2022-10-16T01:33:08;4.18;;;2.60;;
3613;SDS011;1821;50.936;6.854;2022-10-16T01:33:56;5.15;;;3.00;;
3613;SDS011;1821;50.936;6.854;2022-10-16T01:35:14;2.95;;;2.45;;
3613;SDS011;1821;50.936;6.854;2022-10-16T01:35:58;3.50;;;2.70;;
3613;SDS011;1821;50.936;6.854;2022-10-16T01:36:49;3.60;;;2.60;;
3613;SDS011;1821;50.936;6.854;2022-10-16T01:37:40;3.20;;;2.33;;
3613;SDS011;1821;50.936;6.854;2022-10-16T01:38:46;4.25;;;2.20;;
3613;SDS011;1821;50.936;6.854;2022-10-16T01:39:31;3.53;;;2.13;;
3613;SDS011;1821;50.936;6.854;2022-10-16T01:40:16;6.63;;;2.40;;
3613;SDS011;1821;50.936;6.854;2022-10-16T01:41:12;3.30;;;2.50;;
3613;SDS011;1821;50.936;6.854;2022-10-16T01:42:13;3.80;;;2.25;;
3613;SDS011;1821;50.936;6.854;2022-10-16T01:43:06;3.70;;;2.38;;
3613;SDS011;1821;50.936;6.854;2022-10-16T01:44:25;4.63;;;2.47;;
3613;SDS011;1821;50.936;6.854;2022-10-16T01:45:05;4.40;;;2.78;;
3613;SDS011;1821;50.936;6.854;2022-10-16T01:45:48;3.50;;;2.80;;
3613;SDS011;1821;50.936;6.854;2022-10-16T01:46:31;3.28;;;2.50;;
3613;SDS011;1821;50.936;6.854;2022-10-16T01:47:14;4.28;;;2.42;;
3613;SDS011;1821;50.936;6.854;2022-10-16T01:47:58;3.20;;;2.30;;
3613;SDS011;1821;50.936;6.854;2022-10-16T01:48:45;3.53;;;2.35;;
3613;SDS011;1821;50.936;6.854;2022-10-16T01:49:32;3.13;;;2.22;;
3613;SDS011;1821;50.936;6.854;2022-10-16T01:50:18;3.28;;;2.45;;
3613;SDS011;1821;50.936;6.854;2022-10-16T01:51:06;4.20;;;2.67;;
3613;SDS011;1821;50.936;6.854;2022-10-16T01:51:54;5.70;;;2.70;;
3613;SDS011;1821;50.936;6.854;2022-10-16T01:52:45;7.10;;;2.70;;
3613;SDS011;1821;50.936;6.854;2022-10-16T01:53:30;3.10;;;2.40;;
3613;SDS011;1821;50.936;6.854;2022-10-16T01:54:12;3.40;;;2.58;;
3613;SDS011;1821;50.936;6.854;2022-10-16T01:54:57;5.00;;;2.55;;
3613;SDS011;1821;50.936;6.854;2022-10-16T01:55:41;2.90;;;2.20;;
3613;SDS011;1821;50.936;6.854;2022-10-16T01:56:27;5.70;;;3.13;;
3613;SDS011;1821;50.936;6.854;2022-10-16T01:57:10;8.60;;;2.83;;
3613;SDS011;1821;50.936;6.854;2022-10-16T01:57:54;6.03;;;3.00;;
3613;SDS011;1821;50.936;6.854;2022-10-16T01:58:38;6.00;;;2.80;;
3613;SDS011;1821;50.936;6.854;2022-10-16T01:59:26;4.90;;;2.50;;
3613;SDS011;1821;50.936;6.854;2022-10-16T02:00:12;3.83;;;2.40;;
3613;SDS011;1821;50.936;6.854;2022-10-16T02:00:58;5.70;;;2.70;;
3613;SDS011;1821;50.936;6.854;2022-10-16T02:01:40;4.35;;;2.60;;
3613;SDS011;1821;50.936;6.854;2022-10-16T02:02:28;3.15;;;2.80;;
3613;SDS011;1821;50.936;6.854;2022-10-16T02:03:13;6.10;;;2.60;;
3613;SDS011;1821;50.936;6.854;2022-10-16T02:03:58;4.50;;;3.47;;
3613;SDS011;1821;50.936;6.854;2022-10-16T02:04:45;4.93;;;3.00;;
3613;SDS011;1821;50.936;6.854;2022-10-16T02:05:32;4.38;;;3.00;;
3613;SDS011;1821;50.936;6.854;2022-10-16T02:06:19;5.40;;;3.10;;
3613;SDS011;1821;50.936;6.854;2022-10-16T02:07:01;4.95;;;2.80;;
3613;SDS011;1821;50.936;6.854;2022-10-16T02:07:43;7.10;;;3.17;;
3613;SDS011;1821;50.936;6.854;2022-10-16T02:08:25;5.85;;;2.75;;
3613;SDS011;1821;50.936;6.854;2022-10-16T02:09:10;3.65;;;2.88;;
3613;SDS011;1821;50.936;6.854;2022-10-16T02:09:52;3.60;;;2.90;;
3613;SDS011;1821;50.936;6.854;2022-10-16T02:10:34;3.40;;;2.60;;
3613;SDS011;1821;50.936;6.854;2022-10-16T02:11:17;3.70;;;3.00;;
3613;SDS011;1821;50.936;6.854;2022-10-16T02:11:59;3.55;;;2.83;;
3613;SDS011;1821;50.936;6.854;2022-10-16T02:12:49;4.20;;;2.65;;
3613;SDS011;1821;50.936;6.854;2022-10-16T02:13:41;3.78;;;3.00;;
3613;SDS011;1821;50.936;6.854;2022-10-16T02:14:27;3.83;;;2.97;;
3613;SDS011;1821;50.936;6.854;2022-10-16T02:15:10;4.70;;;2.97;;
3613;SDS011;1821;50.936;6.854;2022-10-16T02:15:51;4.80;;;3.00;;
3613;SDS011;1821;50.936;6.854;2022-10-16T02:16:40;5.43;;;3.50;;
3613;SDS011;1821;50.936;6.854;2022-10-16T02:17:24;5.18;;;2.80;;
3613;SDS011;1821;50.936;6.854;2022-10-16T02:18:06;3.72;;;2.83;;
3613;SDS011;1821;50.936;6.854;2022-10-16T02:18:50;3.63;;;2.63;;
3613;SDS011;1821;50.936;6.854;2022-10-16T02:19:31;6.95;;;3.13;;
3613;SDS011;1821;50.936;6.854;2022-10-16T02:20:13;5.53;;;3.28;;
3613;SDS011;1821;50.936;6.854;2022-10-16T02:21:16;7.10;;;3.00;;
3613;SDS011;1821;50.936;6.854;2022-10-16T02:22:11;4.32;;;3.20;;
3613;SDS011;1821;50.936;6.854;2022-10-16T02:22:57;5.68;;;3.13;;
3613;SDS011;1821;50.936;6.854;2022-10-16T02:23:45;4.10;;;2.90;;
3613;SDS011;1821;50.936;6.854;2022-10-16T02:24:38;4.00;;;2.90;;
3613;SDS011;1821;50.936;6.854;2022-10-16T02:25:32;4.00;;;2.80;;
3613;SDS011;1821;50.936;6.854;2022-10-16T02:26:21;3.80;;;2.80;;
3613;SDS011;1821;50.936;6.854;2022-10-16T02:27:17;3.70;;;3.05;;
3613;SDS011;1821;50.936;6.854;2022-10-16T02:28:16;5.20;;;2.90;;
3613;SDS011;1821;50.936;6.854;2022-10-16T02:29:06;5.57;;;3.30;;
3613;SDS011;1821;50.936;6.854;2022-10-16T02:29:58;4.55;;;3.00;;
3613;SDS011;1821;50.936;6.854;2022-10-16T02:30:54;4.72;;;2.60;;
3613;SDS011;1821;50.936;6.854;2022-10-16T02:31:38;6.20;;;2.60;;
3613;SDS011;1821;50.936;6.854;2022-10-16T02:32:27;3.35;;;2.63;;
3613;SDS011;1821;50.936;6.854;2022-10-16T02:33:12;3.90;;;2.75;;
3613;SDS011;1821;50.936;6.854;2022-10-16T02:33:56;3.33;;;2.67;;
3613;SDS011;1821;50.936;6.854;2022-10-16T02:34:40;3.10;;;2.30;;
3613;SDS011;1821;50.936;6.854;2022-10-16T02:35:23;3.58;;;2.60;;
3613;SDS011;1821;50.936;6.854;2022-10-16T02:36:06;3.55;;;2.53;;
3613;SDS011;1821;50.936;6.854;2022-10-16T02:36:49;3.72;;;2.90;;
3613;SDS011;1821;50.936;6.854;2022-10-16T02:37:32;3.85;;;3.30;;
3613;SDS011;1821;50.936;6.854;2022-10-16T02:38:14;4.60;;;3.10;;
3613;SDS011;1821;50.936;6.854;2022-10-16T02:38:58;4.38;;;2.42;;
3613;SDS011;1821;50.936;6.854;2022-10-16T02:39:42;4.43;;;2.63;;
3613;SDS011;1821;50.936;6.854;2022-10-16T02:40:23;4.50;;;2.40;;
3613;SDS011;1821;50.936;6.854;2022-10-16T02:41:06;3.40;;;2.70;;
3613;SDS011;1821;50.936;6.854;2022-10-16T02:41:48;3.20;;;2.47;;
3613;SDS011;1821;50.936;6.854;2022-10-16T02:42:34;4.40;;;2.42;;
3613;SDS011;1821;50.936;6.854;2022-10-16T02:43:17;3.35;;;2.42;;
3613;SDS011;1821;50.936;6.854;2022-10-16T02:43:59;3.10;;;2.40;;
3613;SDS011;1821;50.936;6.854;2022-10-16T02:44:41;3.10;;;2.50;;
3613;SDS011;1821;50.936;6.854;2022-10-16T02:45:22;3.27;;;2.30;;
3613;SDS011;1821;50.936;6.854;2022-10-16T02:46:04;3.40;;;2.30;;
3613;SDS011;1821;50.936;6.854;2022-10-16T02:46:47;3.42;;;2.50;;
3613;SDS011;1821;50.936;6.854;2022-10-16T02:47:28;3.47;;;2.40;;
3613;SDS011;1821;50.936;6.854;2022-10-16T02:48:10;2.90;;;2.40;;
3613;SDS011;1821;50.936;6.854;2022-10-16T02:48:52;3.72;;;2.50;;
3613;SDS011;1821;50.936;6.854;2022-10-16T02:49:33;4.95;;;3.20;;
3613;SDS011;1821;50.936;6.854;2022-10-16T02:50:15;4.30;;;2.70;;
3613;SDS011;1821;50.936;6.854;2022-10-16T02:50:57;2.85;;;2.20;;
3613;SDS011;1821;50.936;6.854;2022-10-16T02:51:39;3.47;;;2.20;;
3613;SDS011;1821;50.936;6.854;2022-10-16T02:52:21;5.93;;;2.33;;
3613;SDS011;1821;50.936;6.854;2022-10-16T02:53:02;5.47;;;2.63;;
3613;SDS011;1821;50.936;6.854;2022-10-16T02:53:44;5.10;;;2.40;;
3613;SDS011;1821;50.936;6.854;2022-10-16T02:54:26;3.40;;;2.30;;
3613;SDS011;1821;50.936;6.854;2022-10-16T02:55:08;3.60;;;2.40;;
3613;SDS011;1821;50.936;6.854;2022-10-16T02:55:50;3.20;;;2.00;;
3613;SDS011;1821;50.936;6.854;2022-10-16T02:56:31;3.10;;;2.03;;
3613;SDS011;1821;50.936;6.854;2022-10-16T02:57:13;3.17;;;2.10;;
3613;SDS011;1821;50.936;6.854;2022-10-16T02:57:55;6.05;;;3.20;;
3613;SDS011;1821;50.936;6.854;2022-10-16T02:58:36;4.53;;;2.40;;
3613;SDS011;1821;50.936;6.854;2022-10-16T02:59:18;5.20;;;2.47;;
3613;SDS011;1821;50.936;6.854;2022-10-16T03:00:00;5.68;;;2.78;;
3613;SDS011;1821;50.936;6.854;2022-10-16T03:00:41;5.80;;;2.80;;
3613;SDS011;1821;50.936;6.854;2022-10-16T03:01:23;3.90;;;2.70;;
3613;SDS011;1821;50.936;6.854;2022-10-16T03:02:05;4.95;;;2.88;;
3613;SDS011;1821;50.936;6.854;2022-10-16T03:02:47;3.50;;;2.50;;
3613;SDS011;1821;50.936;6.854;2022-10-16T03:03:29;3.50;;;2.20;;
3613;SDS011;1821;50.936;6.854;2022-10-16T03:04:11;4.10;;;2.40;;
3613;SDS011;1821;50.936;6.854;2022-10-16T03:04:52;4.40;;;2.60;;
3613;SDS011;1821;50.936;6.854;2022-10-16T03:05:34;3.60;;;2.30;;
3613;SDS011;1821;50.936;6.854;2022-10-16T03:06:16;3.10;;;2.10;;
3613;SDS011;1821;50.936;6.854;2022-10-16T03:06:57;4.95;;;2.50;;
3613;SDS011;1821;50.936;6.854;2022-10-16T03:07:39;6.10;;;2.63;;
3613;SDS011;1821;50.936;6.854;2022-10-16T03:08:21;7.10;;;2.33;;
3613;SDS011;1821;50.936;6.854;2022-10-16T03:09:04;3.30;;;1.95;;
3613;SDS011;1821;50.936;6.854;2022-10-16T03:09:46;2.80;;;2.00;;
3613;SDS011;1821;50.936;6.854;2022-10-16T03:10:28;3.90;;;2.40;;
3613;SDS011;1821;50.936;6.854;2022-10-16T03:11:09;3.60;;;2.60;;
3613;SDS011;1821;50.936;6.854;2022-10-16T03:11:51;7.00;;;2.80;;
3613;SDS011;1821;50.936;6.854;2022-10-16T03:12:33;3.25;;;2.50;;
3613;SDS011;1821;50.936;6.854;2022-10-16T03:13:15;3.05;;;2.10;;
3613;SDS011;1821;50.936;6.854;2022-10-16T03:13:56;2.90;;;2.10;;
3613;SDS011;1821;50.936;6.854;2022-10-16T03:14:38;3.72;;;2.30;;
3613;SDS011;1821;50.936;6.854;2022-10-16T03:15:20;3.75;;;2.55;;
3613;SDS011;1821;50.936;6.854;2022-10-16T03:16:02;4.53;;;2.20;;
3613;SDS011;1821;50.936;6.854;2022-10-16T03:16:44;4.80;;;2.20;;
3613;SDS011;1821;50.936;6.854;2022-10-16T03:17:26;5.40;;;2.20;;
3613;SDS011;1821;50.936;6.854;2022-10-16T03:18:08;3.80;;;2.30;;
3613;SDS011;1821;50.936;6.854;2022-10-16T03:18:50;5.15;;;2.53;;
3613;SDS011;1821;50.936;6.854;2022-10-16T03:19:31;4.20;;;2.50;;
3613;SDS011;1821;50.936;6.854;2022-10-16T03:20:13;5.80;;;3.10;;
3613;SDS011;1821;50.936;6.854;2022-10-16T03:20:55;5.20;;;2.78;;
3613;SDS011;1821;50.936;6.854;2022-10-16T03:21:37;5.50;;;2.88;;
3613;SDS011;1821;50.936;6.854;2022-10-16T03:22:18;3.50;;;2.60;;
3613;SDS011;1821;50.936;6.854;2022-10-16T03:23:00;3.50;;;2.50;;
3613;SDS011;1821;50.936;6.854;2022-10-16T03:23:43;4.03;;;2.35;;
3613;SDS011;1821;50.936;6.854;2022-10-16T03:24:25;3.90;;;2.20;;
3613;SDS011;1821;50.936;6.854;2022-10-16T03:25:07;4.07;;;2.20;;
3613;SDS011;1821;50.936;6.854;2022-10-16T03:25:48;3.58;;;2.20;;
3613;SDS011;1821;50.936;6.854;2022-10-16T03:26:30;2.90;;;2.20;;
3613;SDS011;1821;50.936;6.854;2022-10-16T03:27:12;2.90;;;2.10;;
3613;SDS011;1821;50.936;6.854;2022-10-16T03:27:53;3.05;;;1.98;;
3613;SDS011;1821;50.936;6.854;2022-10-16T03:28:35;3.55;;;2.38;;
3613;SDS011;1821;50.936;6.854;2022-10-16T03:29:17;6.80;;;2.30;;
3613;SDS011;1821;50.936;6.854;2022-10-16T03:29:58;6.85;;;2.40;;
3613;SDS011;1821;50.936;6.854;2022-10-16T03:30:40;5.40;;;2.30;;
3613;SDS011;1821;50.936;6.854;2022-10-16T03:31:22;4.53;;;2.38;;
3613;SDS011;1821;50.936;6.854;2022-10-16T03:32:03;4.90;;;2.65;;
3613;SDS011;1821;50.936;6.854;2022-10-16T03:32:45;4.00;;;2.17;;
3613;SDS011;1821;50.936;6.854;2022-10-16T03:33:27;4.40;;;2.60;;
3613;SDS011;1821;50.936;6.854;2022-10-16T03:34:08;3.95;;;2.60;;
3613;SDS011;1821;50.936;6.854;2022-10-16T03:34:50;4.20;;;2.27;;
3613;SDS011;1821;50.936;6.854;2022-10-16T03:35:32;3.88;;;2.20;;
3613;SDS011;1821;50.936;6.854;2022-10-16T03:36:14;5.53;;;2.30;;
3613;SDS011;1821;50.936;6.854;2022-10-16T03:36:55;3.47;;;2.40;;
3613;SDS011;1821;50.936;6.854;2022-10-16T03:37:37;6.00;;;2.10;;
3613;SDS011;1821;50.936;6.854;2022-10-16T03:38:19;5.68;;;1.98;;
3613;SDS011;1821;50.936;6.854;2022-10-16T03:39:02;4.20;;;2.20;;
3613;SDS011;1821;50.936;6.854;2022-10-16T03:39:44;4.10;;;2.20;;
3613;SDS011;1821;50.936;6.854;2022-10-16T03:40:25;4.65;;;2.40;;
3613;SDS011;1821;50.936;6.854;2022-10-16T03:41:07;3.55;;;2.30;;
3613;SDS011;1821;50.936;6.854;2022-10-16T03:41:49;4.30;;;2.45;;
3613;SDS011;1821;50.936;6.854;2022-10-16T03:42:30;6.82;;;2.30;;
3613;SDS011;1821;50.936;6.854;2022-10-16T03:43:12;4.10;;;2.10;;
3613;SDS011;1821;50.936;6.854;2022-10-16T03:43:55;2.90;;;1.90;;
3613;SDS011;1821;50.936;6.854;2022-10-16T03:44:36;2.60;;;1.80;;
3613;SDS011;1821;50.936;6.854;2022-10-16T03:45:18;4.43;;;2.30;;
3613;SDS011;1821;50.936;6.854;2022-10-16T03:45:59;5.63;;;2.40;;
3613;SDS011;1821;50.936;6.854;2022-10-16T03:46:41;5.07;;;2.10;;
3613;SDS011;1821;50.936;6.854;2022-10-16T03:47:23;3.90;;;2.00;;
3613;SDS011;1821;50.936;6.854;2022-10-16T03:48:05;3.35;;;1.90;;
3613;SDS011;1821;50.936;6.854;2022-10-16T03:48:47;5.60;;;2.30;;
3613;SDS011;1821;50.936;6.854;2022-10-16T03:49:29;5.90;;;2.05;;
3613;SDS011;1821;50.936;6.854;2022-10-16T03:50:10;3.50;;;1.83;;
3613;SDS011;1821;50.936;6.854;2022-10-16T03:50:52;4.45;;;2.13;;
3613;SDS011;1821;50.936;6.854;2022-10-16T03:51:34;4.30;;;1.83;;
3613;SDS011;1821;50.936;6.854;2022-10-16T03:52:16;4.35;;;1.90;;
3613;SDS011;1821;50.936;6.854;2022-10-16T03:53:03;6.00;;;2.10;;
3613;SDS011;1821;50.936;6.854;2022-10-16T03:53:45;3.45;;;2.17;;
3613;SDS011;1821;50.936;6.854;2022-10-16T03:54:26;3.85;;;2.05;;
3613;SDS011;1821;50.936;6.854;2022-10-16T03:55:08;3.42;;;1.90;;
3613;SDS011;1821;50.936;6.854;2022-10-16T03:55:50;2.70;;;1.90;;
3613;SDS011;1821;50.936;6.854;2022-10-16T03:56:31;4.43;;;2.00;;
3613;SDS011;1821;50.936;6.854;2022-10-16T03:57:14;4.90;;;1.77;;
3613;SDS011;1821;50.936;6.854;2022-10-16T03:57:55;2.55;;;1.58;;
3613;SDS011;1821;50.936;6.854;2022-10-16T03:58:37;2.65;;;1.83;;
3613;SDS011;1821;50.936;6.854;2022-10-16T03:59:18;3.92;;;1.95;;
3613;SDS011;1821;50.936;6.854;2022-10-16T04:00:00;3.95;;;2.10;;
3613;SDS011;1821;50.936;6.854;2022-10-16T04:00:42;3.60;;;2.00;;
3613;SDS011;1821;50.936;6.854;2022-10-16T04:01:25;6.40;;;2.10;;
3613;SDS011;1821;50.936;6.854;2022-10-16T04:02:07;3.33;;;1.90;;
3613;SDS011;1821;50.936;6.854;2022-10-16T04:02:48;3.10;;;1.73;;
3613;SDS011;1821;50.936;6.854;2022-10-16T04:03:30;2.75;;;1.77;;
3613;SDS011;1821;50.936;6.854;2022-10-16T04:04:12;3.15;;;1.90;;
3613;SDS011;1821;50.936;6.854;2022-10-16T04:04:54;3.00;;;2.00;;
3613;SDS011;1821;50.936;6.854;2022-10-16T04:05:35;6.20;;;2.00;;
3613;SDS011;1821;50.936;6.854;2022-10-16T04:06:17;3.85;;;1.80;;
3613;SDS011;1821;50.936;6.854;2022-10-16T04:06:59;4.30;;;1.90;;
3613;SDS011;1821;50.936;6.854;2022-10-16T04:07:41;7.28;;;2.13;;
3613;SDS011;1821;50.936;6.854;2022-10-16T04:08:22;4.18;;;2.10;;
3613;SDS011;1821;50.936;6.854;2022-10-16T04:09:04;3.90;;;1.80;;
3613;SDS011;1821;50.936;6.854;2022-10-16T04:09:46;3.33;;;2.20;;
3613;SDS011;1821;50.936;6.854;2022-10-16T04:10:27;2.72;;;1.60;;
3613;SDS011;1821;50.936;6.854;2022-10-16T04:11:09;2.92;;;1.80;;
3613;SDS011;1821;50.936;6.854;2022-10-16T04:11:51;3.10;;;2.10;;
3613;SDS011;1821;50.936;6.854;2022-10-16T04:12:33;5.47;;;2.00;;
3613;SDS011;1821;50.936;6.854;2022-10-16T04:13:14;5.60;;;2.05;;
3613;SDS011;1821;50.936;6.854;2022-10-16T04:13:56;3.95;;;1.60;;
3613;SDS011;1821;50.936;6.854;2022-10-16T04:14:38;3.10;;;1.88;;
3613;SDS011;1821;50.936;6.854;2022-10-16T04:15:19;5.75;;;2.17;;
3613;SDS011;1821;50.936;6.854;2022-10-16T04:16:01;3.45;;;1.90;;
3613;SDS011;1821;50.936;6.854;2022-10-16T04:16:43;3.60;;;1.90;;
3613;SDS011;1821;50.936;6.854;2022-10-16T04:17:25;2.70;;;2.05;;
3613;SDS011;1821;50.936;6.854;2022-10-16T04:18:07;3.10;;;1.60;;
3613;SDS011;1821;50.936;6.854;2022-10-16T04:18:49;2.95;;;1.70;;
3613;SDS011;1821;50.936;6.854;2022-10-16T04:19:30;5.28;;;1.90;;
3613;SDS011;1821;50.936;6.854;2022-10-16T04:20:12;11.10;;;2.30;;
3613;SDS011;1821;50.936;6.854;2022-10-16T04:20:54;10.20;;;2.20;;
3613;SDS011;1821;50.936;6.854;2022-10-16T04:21:36;2.90;;;1.70;;
3613;SDS011;1821;50.936;6.854;2022-10-16T04:22:18;3.13;;;1.80;;
3613;SDS011;1821;50.936;6.854;2022-10-16T04:23:00;2.72;;;1.70;;
3613;SDS011;1821;50.936;6.854;2022-10-16T04:23:41;4.00;;;1.77;;
3613;SDS011;1821;50.936;6.854;2022-10-16T04:24:23;3.70;;;1.88;;
3613;SDS011;1821;50.936;6.854;2022-10-16T04:25:05;3.20;;;2.20;;
3613;SDS011;1821;50.936;6.854;2022-10-16T04:25:47;4.20;;;1.75;;
3613;SDS011;1821;50.936;6.854;2022-10-16T04:26:29;4.90;;;1.98;;
3613;SDS011;1821;50.936;6.854;2022-10-16T04:27:11;2.67;;;1.75;;
3613;SDS011;1821;50.936;6.854;2022-10-16T04:27:53;4.32;;;2.10;;
3613;SDS011;1821;50.936;6.854;2022-10-16T04:28:35;4.80;;;2.20;;
3613;SDS011;1821;50.936;6.854;2022-10-16T04:29:16;3.00;;;1.80;;
3613;SDS011;1821;50.936;6.854;2022-10-16T04:29:59;3.60;;;1.90;;
3613;SDS011;1821;50.936;6.854;2022-10-16T04:30:40;3.72;;;1.90;;
3613;SDS011;1821;50.936;6.854;2022-10-16T04:31:22;3.60;;;1.80;;
3613;SDS011;1821;50.936;6.854;2022-10-16T04:32:04;3.97;;;1.85;;
3613;SDS011;1821;50.936;6.854;2022-10-16T04:32:48;3.92;;;2.00;;
3613;SDS011;1821;50.936;6.854;2022-10-16T04:33:31;4.70;;;1.90;;
3613;SDS011;1821;50.936;6.854;2022-10-16T04:34:13;3.05;;;2.00;;
3613;SDS011;1821;50.936;6.854;2022-10-16T04:34:55;4.10;;;2.20;;
3613;SDS011;1821;50.936;6.854;2022-10-16T04:35:37;7.03;;;1.88;;
3613;SDS011;1821;50.936;6.854;2022-10-16T04:36:18;2.72;;;1.75;;
3613;SDS011;1821;50.936;6.854;2022-10-16T04:37:02;4.28;;;2.00;;
3613;SDS011;1821;50.936;6.854;2022-10-16T04:37:44;2.80;;;1.88;;
3613;SDS011;1821;50.936;6.854;2022-10-16T04:38:26;2.53;;;1.60;;
3613;SDS011;1821;50.936;6.854;2022-10-16T04:39:07;2.80;;;1.70;;
3613;SDS011;1821;50.936;6.854;2022-10-16T04:39:49;5.30;;;1.98;;
3613;SDS011;1821;50.936;6.854;2022-10-16T04:40:31;5.18;;;2.10;;
3613;SDS011;1821;50.936;6.854;2022-10-16T04:41:17;4.70;;;1.80;;
3613;SDS011;1821;50.936;6.854;2022-10-16T04:41:59;4.22;;;1.90;;
3613;SDS011;1821;50.936;6.854;2022-10-16T04:42:40;3.13;;;2.00;;
3613;SDS011;1821;50.936;6.854;2022-10-16T04:43:22;4.18;;;2.10;;
3613;SDS011;1821;50.936;6.854;2022-10-16T04:44:04;3.13;;;1.90;;
3613;SDS011;1821;50.936;6.854;2022-10-16T04:44:46;4.55;;;2.03;;
3613;SDS011;1821;50.936;6.854;2022-10-16T04:45:28;6.07;;;2.00;;
3613;SDS011;1821;50.936;6.854;2022-10-16T04:46:10;3.85;;;2.00;;
3613;SDS011;1821;50.936;6.854;2022-10-16T04:46:51;3.00;;;2.00;;
3613;SDS011;1821;50.936;6.854;2022-10-16T04:47:33;2.90;;;2.00;;